Nearby METAR Reports



KADS - Dallas/Addison, Texas, USA
Distance from station: SSW 10mi, 16km
Updated: Wed, 12-Jun-2024 10:55pm CDT
Clear
Clear
 Wind from SE
Wind: SE 8 mph, 13 km/h
Temperature: 81°F, 27°C
Heat Index: 83°F, 28°C
Dew Point: 66°F, 19°C
Humidity: 62%
Barometer: 29.97 inHg, 1014.9 hPa
Clouds: Clear
Visibility: 10 miles, 16 km
2024/06/13 03:55 KADS 130355Z AUTO 13007KT 10SM CLR 27/19 A2997 RMK AO2 T02720194 PWINO
KTKI - Mckinney, Texas, USA
Distance from station: ENE 11mi, 18km
Updated: Wed, 12-Jun-2024 10:53pm CDT
Clear
Clear
 Wind from SSE
Wind: SSE 6 mph, 9 km/h
Temperature: 79°F, 26°C
Dew Point: 68°F, 20°C
Humidity: 70%
Barometer: 29.95 inHg, 1014.2 hPa
Clouds: Clear
Visibility: 10 miles, 16 km
2024/06/13 03:53 KTKI 130353Z AUTO 15005KT 10SM CLR 26/20 A2995 RMK AO2 SLP136 T02560200
 
KDAL - Dallas/Love Fld, Texas, USA
Distance from station: SSW 18mi, 30km
Updated: Wed, 12-Jun-2024 10:53pm CDT
Clear
Clear
 Wind from ESE
Wind: ESE 6 mph, 9 km/h
Temperature: 82°F, 28°C
Heat Index: 85°F, 29°C
Dew Point: 68°F, 20°C
Humidity: 62%
Barometer: 29.94 inHg, 1013.9 hPa
Clouds: Clear
Visibility: 10 miles, 16 km
2024/06/13 03:53 KDAL 130353Z 12005KT 10SM CLR 28/20 A2994 RMK AO2 SLP131 T02780200
KDFW - Dallas/Ft Worth, Texas, USA
Distance from station: SW 21mi, 34km
Updated: Wed, 12-Jun-2024 10:53pm CDT
Clear
Clear
 Wind from SE
Wind: SE 5 mph, 7 km/h
Temperature: 81°F, 27°C
Heat Index: 85°F, 29°C
Dew Point: 70°F, 21°C
Humidity: 70%
Barometer: 29.94 inHg, 1013.9 hPa
Clouds: Clear
Visibility: 10 miles, 16 km
2024/06/13 03:53 KDFW 130353Z 13004KT 10SM CLR 27/21 A2994 RMK AO2 SLP127 T02670206
 
KF46 - Rockwall, Texas, USA
Distance from station: ESE 22mi, 35km
Updated: Wed, 12-Jun-2024 10:55pm CDT
Clear
Clear
 Wind from SE
Wind: SE 3 mph, 6 km/h
Temperature: 77°F, 25°C
Dew Point: 68°F, 20°C
Humidity: 74%
Barometer: 29.96 inHg, 1014.6 hPa
Clouds: Clear
Visibility: 10 miles, 16 km
2024/06/13 03:55 KF46 130355Z AUTO 14003KT 10SM CLR 25/20 A2996 RMK AO2 T02520201
KDTO - Denton, Texas, USA
Distance from station: WNW 27mi, 43km
Updated: Wed, 12-Jun-2024 10:53pm CDT
Clear
Clear
 Wind from SSE
Wind: SSE 5 mph, 7 km/h
Temperature: 81°F, 27°C
Heat Index: 85°F, 29°C
Dew Point: 70°F, 21°C
Humidity: 70%
Barometer: 29.95 inHg, 1014.2 hPa
Clouds: Clear
Visibility: 10 miles, 16 km
2024/06/13 03:53 KDTO 130353Z AUTO 15004KT 10SM CLR 27/21 A2995 RMK AO2 SLP132 T02670206 TSNO
 
KHQZ - Mesquite, Texas, USA
Distance from station: SSE 28mi, 44km
Updated: Wed, 12-Jun-2024 10:55pm CDT
Clear
Clear
 Wind from SE
Wind: SE 3 mph, 6 km/h
Temperature: 77°F, 25°C
Dew Point: 70°F, 21°C
Humidity: 79%
Barometer: 29.95 inHg, 1014.2 hPa
Clouds: Clear
Visibility: 3 miles, 5 km
2024/06/13 03:55 KHQZ 130355Z AUTO 14003KT 3SM CLR 25/21 A2995 RMK AO1 T02460205
KRBD - Dallas/Redbird, Texas, USA
Distance from station: SSW 30mi, 48km
Updated: Wed, 12-Jun-2024 10:53pm CDT
Clear
Clear
 Wind from SE
Wind: SE 6 mph, 9 km/h
Temperature: 79°F, 26°C
Dew Point: 70°F, 21°C
Humidity: 74%
Barometer: 29.94 inHg, 1013.9 hPa
Clouds: Clear
Visibility: 10 miles, 16 km
2024/06/13 03:53 KRBD 130353Z AUTO 14005KT 10SM CLR 26/21 A2994 RMK AO2 SLP130 T02560211
 
KGPM - Grand Prairie, Texas, USA
Distance from station: SSW 33mi, 53km
Updated: Wed, 12-Jun-2024 10:55pm CDT
Clear
Clear
 Wind from SE
Wind: SE 3 mph, 6 km/h
Temperature: 81°F, 27°C
Heat Index: 84°F, 29°C
Dew Point: 68°F, 20°C
Humidity: 66%
Barometer: 29.95 inHg, 1014.2 hPa
Clouds: Clear
Visibility: 10 miles, 16 km
2024/06/13 03:55 KGPM 130355Z AUTO 13003KT 10SM CLR 27/20 A2995 RMK AO2 T02670195
KAFW - Ft Worth/Allianc, Texas, USA
Distance from station: WSW 34mi, 55km
Updated: Wed, 12-Jun-2024 10:53pm CDT
Clear
Clear
 Wind from SE
Wind: SE 7 mph, 11 km/h
Temperature: 82°F, 28°C
Heat Index: 85°F, 29°C
Dew Point: 68°F, 20°C
Humidity: 62%
Barometer: 29.94 inHg, 1013.9 hPa
Clouds: Clear
Visibility: 10 miles, 16 km
2024/06/13 03:53 KAFW 130353Z 14006KT 10SM CLR 28/20 A2994 RMK AO2 SLP125 T02780200
 
KLNC - Lancaster, Texas, USA
Distance from station: S 36mi, 58km
Updated: Wed, 12-Jun-2024 10:55pm CDT
Clear
Clear
 Wind from calm
Wind: Calm
Temperature: 77°F, 25°C
Dew Point: 70°F, 21°C
Humidity: 79%
Barometer: 29.95 inHg, 1014.2 hPa
Clouds: Clear
Visibility: 10 miles, 16 km
2024/06/13 03:55 KLNC 130355Z AUTO 00000KT 10SM CLR 25/21 A2995 RMK AO2 T02510211
KGKY - Arlington, Texas, USA
Distance from station: SSW 36mi, 59km
Updated: Wed, 12-Jun-2024 10:53pm CDT
Clear
Clear
 Wind from SE
Wind: SE 7 mph, 11 km/h
Temperature: 81°F, 27°C
Heat Index: 85°F, 29°C
Dew Point: 70°F, 21°C
Humidity: 70%
Barometer: 29.94 inHg, 1013.9 hPa
Clouds: Clear
Visibility: 10 miles, 16 km
2024/06/13 03:53 KGKY 130353Z AUTO 13006KT 10SM CLR 27/21 A2994 RMK AO2 SLP129 T02670206
 
KTRL - Terrell, Texas, USA
Distance from station: SE 39mi, 63km
Updated: Wed, 12-Jun-2024 10:53pm CDT
Clear
Clear
 Wind from ESE
Wind: ESE 3 mph, 6 km/h
Temperature: 77°F, 25°C
Dew Point: 68°F, 20°C
Humidity: 74%
Barometer: 29.95 inHg, 1014.2 hPa
Clouds: Clear
Visibility: 10 miles, 16 km
2024/06/13 03:53 KTRL 130353Z AUTO 11003KT 10SM CLR 25/20 A2995 RMK AO2 SLP135 T02500200
KGVT - Greenville/Major, Texas, USA
Distance from station: E 40mi, 64km
Updated: Wed, 12-Jun-2024 10:55pm CDT
Clear
Clear
 Wind from calm
Wind: Calm
Temperature: 73°F, 23°C
Dew Point: 70°F, 21°C
Humidity: 89%
Barometer: 29.95 inHg, 1014.2 hPa
Clouds: Clear
Visibility: 10 miles, 16 km
2024/06/13 03:55 KGVT 130355Z AUTO 00000KT 10SM CLR 23/21 A2995 RMK AO2 TSNO T02290210
 
KFTW - Fort Worth, Texas, USA
Distance from station: WSW 40mi, 65km
Updated: Wed, 12-Jun-2024 10:53pm CDT
Clear
Clear
 Wind from SE
Wind: SE 6 mph, 9 km/h
Temperature: 79°F, 26°C
Dew Point: 70°F, 21°C
Humidity: 74%
Barometer: 29.94 inHg, 1013.9 hPa
Clouds: Clear
Visibility: 10 miles, 16 km
2024/06/13 03:53 KFTW 130353Z 14005KT 10SM CLR 26/21 A2994 RMK AO2 SLP129 T02560206
KGYI - Sherman/Denison, Texas, USA
Distance from station: N 43mi, 69km
Updated: Wed, 12-Jun-2024 10:55pm CDT
Clear
Clear
 Wind from SE
Wind: SE 7 mph, 11 km/h
Temperature: 79°F, 26°C
Dew Point: 66°F, 19°C
Humidity: 65%
Barometer: 29.97 inHg, 1014.9 hPa
Clouds: Clear
Visibility: 10 miles, 16 km
2024/06/13 03:55 KGYI 130355Z AUTO 14006KT 10SM CLR 26/19 A2997 RMK AO2 T02580186 TSNO
 
KNFW - Fort Worth Nas, Texas, USA
Distance from station: WSW 45mi, 73km
Updated: Wed, 12-Jun-2024 10:52pm CDT
Clear
Clear
 Wind from SSE
Wind: SSE 6 mph, 9 km/h
Temperature: 82°F, 28°C
Heat Index: 86°F, 30°C
Dew Point: 70°F, 21°C
Humidity: 66%
Barometer: 29.95 inHg, 1014.2 hPa
Clouds: Clear
Visibility: 10 miles, 16 km
2024/06/13 03:52 KNFW 130352Z 15005KT 10SM CLR 28/21 A2995 RMK AO2 SLP125 T02780211 $
KGLE - Gainesville, Texas, USA
Distance from station: NW 46mi, 74km
Updated: Wed, 12-Jun-2024 10:55pm CDT
Clear
Clear
 Wind from SSE
Wind: SSE 5 mph, 7 km/h
Temperature: 75°F, 24°C
Dew Point: 70°F, 21°C
Humidity: 83%
Barometer: 29.97 inHg, 1014.9 hPa
Clouds: Clear
Visibility: 10 miles, 16 km
2024/06/13 03:55 KGLE 130355Z AUTO 15004KT 10SM CLR 24/21 A2997 RMK AO2 T02410210 PWINO
 
KJWY - Midlothian/Wax, Texas, USA
Distance from station: SSW 46mi, 74km
Updated: Wed, 12-Jun-2024 10:55pm CDT
Clear
Clear
 Wind from SE
Wind: SE 3 mph, 6 km/h
Temperature: 77°F, 25°C
Dew Point: 70°F, 21°C
Humidity: 79%
Barometer: 29.97 inHg, 1014.9 hPa
Clouds: Clear
Visibility: 10 miles, 16 km
2024/06/13 03:55 KJWY 130355Z AUTO 13003KT 10SM CLR 25/21 A2997 RMK AO2 T02500212 TSNO $
KFWS - Fort Worth/88d, Texas, USA
Distance from station: SW 49mi, 79km
Updated: Wed, 12-Jun-2024 10:55pm CDT
Clear
Clear
 Wind from calm
Wind: Calm
Temperature: 77°F, 25°C
Dew Point: 70°F, 21°C
Humidity: 79%
Barometer: 29.96 inHg, 1014.6 hPa
Clouds: Clear
Visibility: 10 miles, 16 km
2024/06/13 03:55 KFWS 130355Z AUTO 00000KT 10SM CLR 25/21 A2996 RMK AO2 T02480215